sensor_id;sensor_type;location;lat;lon;timestamp;pressure;altitude;pressure_sealevel;temperature;humidity
67842;BME280;54642;59.126;37.876;2023-05-22T00:01:21;100942.91;;;15.40;73.61
67842;BME280;54642;59.126;37.876;2023-05-22T00:03:47;100954.13;;;15.45;73.74
67842;BME280;54642;59.126;37.876;2023-05-22T00:06:15;100975.00;;;15.50;74.02
67842;BME280;54642;59.126;37.876;2023-05-22T00:08:43;100956.75;;;15.45;74.05
67842;BME280;54642;59.126;37.876;2023-05-22T00:11:09;100966.31;;;15.46;73.60
67842;BME280;54642;59.126;37.876;2023-05-22T00:13:35;100984.59;;;15.48;73.88
67842;BME280;54642;59.126;37.876;2023-05-22T00:16:01;100971.53;;;15.48;73.84
67842;BME280;54642;59.126;37.876;2023-05-22T00:18:27;100980.22;;;15.48;73.54
67842;BME280;54642;59.126;37.876;2023-05-22T00:20:53;100972.47;;;15.42;74.02
67842;BME280;54642;59.126;37.876;2023-05-22T00:23:19;100961.19;;;15.38;73.73
67842;BME280;54642;59.126;37.876;2023-05-22T00:25:46;100977.69;;;15.42;73.78
67842;BME280;54642;59.126;37.876;2023-05-22T00:28:12;100989.91;;;15.40;73.85
67842;BME280;54642;59.126;37.876;2023-05-22T00:30:38;100979.47;;;15.37;73.71
67842;BME280;54642;59.126;37.876;2023-05-22T00:33:04;100976.88;;;15.37;73.49
67842;BME280;54642;59.126;37.876;2023-05-22T00:35:32;100934.47;;;15.13;73.99
67842;BME280;54642;59.126;37.876;2023-05-22T00:38:01;100986.41;;;15.41;73.92
67842;BME280;54642;59.126;37.876;2023-05-22T00:40:27;100989.91;;;15.38;73.82
67842;BME280;54642;59.126;37.876;2023-05-22T00:42:53;101000.31;;;15.43;73.84
67842;BME280;54642;59.126;37.876;2023-05-22T00:45:19;100992.53;;;15.38;73.83
67842;BME280;54642;59.126;37.876;2023-05-22T00:47:45;100974.31;;;15.31;74.02
67842;BME280;54642;59.126;37.876;2023-05-22T00:50:11;100989.03;;;15.39;74.00
67842;BME280;54642;59.126;37.876;2023-05-22T00:52:41;100975.13;;;15.36;73.80
67842;BME280;54642;59.126;37.876;2023-05-22T00:55:08;100978.56;;;15.39;73.91
67842;BME280;54642;59.126;37.876;2023-05-22T00:57:35;100976.81;;;15.41;73.95
67842;BME280;54642;59.126;37.876;2023-05-22T01:00:03;100984.63;;;15.43;73.94
67842;BME280;54642;59.126;37.876;2023-05-22T01:02:35;100984.63;;;15.43;73.97
67842;BME280;54642;59.126;37.876;2023-05-22T01:05:03;100993.31;;;15.45;73.93
67842;BME280;54642;59.126;37.876;2023-05-22T01:07:32;100970.75;;;15.38;73.94
67842;BME280;54642;59.126;37.876;2023-05-22T01:10:03;100963.94;;;15.21;74.14
67842;BME280;54642;59.126;37.876;2023-05-22T01:12:51;100992.63;;;15.29;74.28
67842;BME280;54642;59.126;37.876;2023-05-22T01:15:41;100996.97;;;15.29;74.15
67842;BME280;54642;59.126;37.876;2023-05-22T01:18:36;100997.88;;;15.26;74.30
67842;BME280;54642;59.126;37.876;2023-05-22T01:21:17;101002.22;;;15.25;74.38
67842;BME280;54642;59.126;37.876;2023-05-22T01:27:20;100990.97;;;15.19;74.33
67842;BME280;54642;59.126;37.876;2023-05-22T01:30:16;100970.19;;;15.05;74.32
67842;BME280;54642;59.126;37.876;2023-05-22T01:32:46;100964.97;;;15.08;74.43
67842;BME280;54642;59.126;37.876;2023-05-22T01:35:16;100980.47;;;15.22;74.30
67842;BME280;54642;59.126;37.876;2023-05-22T01:37:44;100976.19;;;15.16;74.55
67842;BME280;54642;59.126;37.876;2023-05-22T01:40:10;100979.59;;;15.23;74.42
67842;BME280;54642;59.126;37.876;2023-05-22T01:42:37;100982.22;;;15.23;74.47
67842;BME280;54642;59.126;37.876;2023-05-22T01:45:08;101007.38;;;15.32;74.71
67842;BME280;54642;59.126;37.876;2023-05-22T01:47:35;100996.19;;;15.20;74.86
67842;BME280;54642;59.126;37.876;2023-05-22T01:50:02;100981.47;;;15.10;74.70
67842;BME280;54642;59.126;37.876;2023-05-22T01:52:53;100995.28;;;15.21;74.80
67842;BME280;54642;59.126;37.876;2023-05-22T01:55:20;100987.44;;;15.23;74.80
67842;BME280;54642;59.126;37.876;2023-05-22T01:58:09;100992.66;;;15.26;74.70
67842;BME280;54642;59.126;37.876;2023-05-22T02:00:38;100994.44;;;15.21;74.83
67842;BME280;54642;59.126;37.876;2023-05-22T02:03:09;101002.28;;;15.16;74.76
67842;BME280;54642;59.126;37.876;2023-05-22T02:05:37;100994.63;;;14.98;74.37
67842;BME280;54642;59.126;37.876;2023-05-22T02:08:05;100991.25;;;14.82;74.69
67842;BME280;54642;59.126;37.876;2023-05-22T02:10:32;100978.22;;;14.83;74.75
67842;BME280;54642;59.126;37.876;2023-05-22T02:13:00;100988.56;;;14.96;74.98
67842;BME280;54642;59.126;37.876;2023-05-22T02:15:26;100998.94;;;15.02;74.72
67842;BME280;54642;59.126;37.876;2023-05-22T02:17:52;100995.53;;;14.94;74.41
67842;BME280;54642;59.126;37.876;2023-05-22T02:20:18;100992.19;;;14.76;74.76
67842;BME280;54642;59.126;37.876;2023-05-22T02:22:45;101006.13;;;14.72;74.80
67842;BME280;54642;59.126;37.876;2023-05-22T02:25:12;101009.69;;;14.59;75.14
67842;BME280;54642;59.126;37.876;2023-05-22T02:27:45;100986.25;;;14.45;75.01
67842;BME280;54642;59.126;37.876;2023-05-22T02:30:12;100984.53;;;14.45;75.60
67842;BME280;54642;59.126;37.876;2023-05-22T02:32:40;100994.91;;;14.55;75.38
67842;BME280;54642;59.126;37.876;2023-05-22T02:35:07;101001.84;;;14.56;75.21
67842;BME280;54642;59.126;37.876;2023-05-22T02:37:33;101001.84;;;14.59;75.60
67842;BME280;54642;59.126;37.876;2023-05-22T02:39:59;100981.00;;;14.59;75.54
67842;BME280;54642;59.126;37.876;2023-05-22T02:42:26;100980.94;;;14.66;75.25
67842;BME280;54642;59.126;37.876;2023-05-22T02:44:52;100987.00;;;14.70;75.31
67842;BME280;54642;59.126;37.876;2023-05-22T02:47:18;100980.06;;;14.66;75.47
67842;BME280;54642;59.126;37.876;2023-05-22T02:49:44;100998.31;;;14.72;75.47
67842;BME280;54642;59.126;37.876;2023-05-22T02:52:10;100988.75;;;14.71;75.20
67842;BME280;54642;59.126;37.876;2023-05-22T02:54:36;101001.78;;;14.73;75.46
67842;BME280;54642;59.126;37.876;2023-05-22T02:57:02;101007.91;;;14.67;75.73
67842;BME280;54642;59.126;37.876;2023-05-22T02:59:28;100995.81;;;14.51;75.78
67842;BME280;54642;59.126;37.876;2023-05-22T03:01:54;101003.59;;;14.60;75.75
67842;BME280;54642;59.126;37.876;2023-05-22T03:04:22;100988.78;;;14.56;76.04
67842;BME280;54642;59.126;37.876;2023-05-22T03:06:49;100985.34;;;14.52;76.14
67842;BME280;54642;59.126;37.876;2023-05-22T03:09:14;100985.34;;;14.61;76.12
67842;BME280;54642;59.126;37.876;2023-05-22T03:11:41;100987.00;;;14.70;75.76
67842;BME280;54642;59.126;37.876;2023-05-22T03:14:07;100982.66;;;14.71;75.60
67842;BME280;54642;59.126;37.876;2023-05-22T03:16:33;101007.81;;;14.79;75.67
67842;BME280;54642;59.126;37.876;2023-05-22T03:19:12;101000.84;;;14.81;75.56
67842;BME280;54642;59.126;37.876;2023-05-22T03:21:38;101000.91;;;14.74;75.45
67842;BME280;54642;59.126;37.876;2023-05-22T03:24:06;101020.81;;;14.84;75.52
67842;BME280;54642;59.126;37.876;2023-05-22T03:26:33;101013.00;;;14.82;75.43
67842;BME280;54642;59.126;37.876;2023-05-22T03:29:00;101013.84;;;14.86;75.47
67842;BME280;54642;59.126;37.876;2023-05-22T03:31:31;101013.81;;;14.95;75.52
67842;BME280;54642;59.126;37.876;2023-05-22T03:34:04;100999.09;;;14.80;75.29
67842;BME280;54642;59.126;37.876;2023-05-22T03:36:33;100992.09;;;14.87;75.40
67842;BME280;54642;59.126;37.876;2023-05-22T03:39:00;101003.38;;;14.94;75.66
67842;BME280;54642;59.126;37.876;2023-05-22T03:41:26;100980.75;;;14.91;75.46
67842;BME280;54642;59.126;37.876;2023-05-22T03:43:52;100995.47;;;15.01;75.50
67842;BME280;54642;59.126;37.876;2023-05-22T03:46:18;100977.19;;;15.01;75.54
67842;BME280;54642;59.126;37.876;2023-05-22T03:48:44;100944.28;;;14.85;75.55
67842;BME280;54642;59.126;37.876;2023-05-22T03:51:11;100963.31;;;14.98;75.49
67842;BME280;54642;59.126;37.876;2023-05-22T03:53:37;100955.53;;;14.92;75.65
67842;BME280;54642;59.126;37.876;2023-05-22T03:56:03;100952.84;;;15.02;75.81
67842;BME280;54642;59.126;37.876;2023-05-22T03:58:29;100947.63;;;15.02;76.13
67842;BME280;54642;59.126;37.876;2023-05-22T04:00:55;100957.81;;;15.27;75.82
67842;BME280;54642;59.126;37.876;2023-05-22T04:03:26;100955.13;;;15.36;75.79
67842;BME280;54642;59.126;37.876;2023-05-22T04:05:52;100958.69;;;15.29;75.43
67842;BME280;54642;59.126;37.876;2023-05-22T04:08:18;100964.78;;;15.25;75.28
67842;BME280;54642;59.126;37.876;2023-05-22T04:10:45;100953.63;;;15.11;74.95
67842;BME280;54642;59.126;37.876;2023-05-22T04:13:16;100975.31;;;15.17;75.00
67842;BME280;54642;59.126;37.876;2023-05-22T04:15:42;100975.41;;;15.05;75.45
67842;BME280;54642;59.126;37.876;2023-05-22T04:18:12;100984.97;;;15.07;75.88
67842;BME280;54642;59.126;37.876;2023-05-22T04:20:39;100986.72;;;15.07;75.82
67842;BME280;54642;59.126;37.876;2023-05-22T04:23:05;100961.59;;;14.94;75.90
67842;BME280;54642;59.126;37.876;2023-05-22T04:25:32;100986.59;;;15.19;75.69
67842;BME280;54642;59.126;37.876;2023-05-22T04:27:59;100981.34;;;15.25;75.54
67842;BME280;54642;59.126;37.876;2023-05-22T04:30:31;100983.06;;;15.25;75.81
67842;BME280;54642;59.126;37.876;2023-05-22T04:33:04;100973.41;;;15.35;75.10
67842;BME280;54642;59.126;37.876;2023-05-22T04:35:30;100961.31;;;15.28;75.35
67842;BME280;54642;59.126;37.876;2023-05-22T04:37:57;100986.47;;;15.36;75.21
67842;BME280;54642;59.126;37.876;2023-05-22T04:40:27;100964.72;;;15.33;74.85
67842;BME280;54642;59.126;37.876;2023-05-22T04:42:54;100950.09;;;15.15;75.15
67842;BME280;54642;59.126;37.876;2023-05-22T04:45:24;100978.69;;;15.29;75.14
67842;BME280;54642;59.126;37.876;2023-05-22T04:47:51;100971.75;;;15.28;74.78
67842;BME280;54642;59.126;37.876;2023-05-22T04:50:19;100966.56;;;15.23;74.76
67842;BME280;54642;59.126;37.876;2023-05-22T04:52:46;100969.13;;;15.28;74.60
67842;BME280;54642;59.126;37.876;2023-05-22T04:55:12;100959.53;;;15.31;74.60
67842;BME280;54642;59.126;37.876;2023-05-22T04:57:41;100962.16;;;15.27;74.66
67842;BME280;54642;59.126;37.876;2023-05-22T05:00:09;100952.56;;;15.27;74.52
67842;BME280;54642;59.126;37.876;2023-05-22T05:02:37;100951.69;;;15.33;74.27
67842;BME280;54642;59.126;37.876;2023-05-22T05:05:03;100976.75;;;15.49;74.13
67842;BME280;54642;59.126;37.876;2023-05-22T05:07:29;100953.38;;;15.37;74.11
67842;BME280;54642;59.126;37.876;2023-05-22T05:09:56;100969.66;;;15.60;74.11
67842;BME280;54642;59.126;37.876;2023-05-22T05:12:22;100971.31;;;15.68;73.48
67842;BME280;54642;59.126;37.876;2023-05-22T05:14:47;100966.00;;;15.77;73.37
67842;BME280;54642;59.126;37.876;2023-05-22T05:17:14;100967.72;;;15.81;73.20
67842;BME280;54642;59.126;37.876;2023-05-22T05:19:40;100994.47;;;16.01;72.87
67842;BME280;54642;59.126;37.876;2023-05-22T05:22:06;100969.25;;;15.99;72.30
67842;BME280;54642;59.126;37.876;2023-05-22T05:24:32;100991.69;;;16.15;72.16
67842;BME280;54642;59.126;37.876;2023-05-22T05:26:58;100990.69;;;16.24;71.99
67842;BME280;54642;59.126;37.876;2023-05-22T05:29:24;100963.59;;;16.28;71.69
67842;BME280;54642;59.126;37.876;2023-05-22T05:32:10;100995.34;;;16.64;71.19
67842;BME280;54642;59.126;37.876;2023-05-22T05:34:46;100992.69;;;16.69;71.24
67842;BME280;54642;59.126;37.876;2023-05-22T05:37:20;100984.84;;;16.69;71.38
67842;BME280;54642;59.126;37.876;2023-05-22T05:39:47;100993.25;;;16.89;70.96
67842;BME280;54642;59.126;37.876;2023-05-22T05:42:13;100998.34;;;16.97;70.89
67842;BME280;54642;59.126;37.876;2023-05-22T05:44:38;100998.97;;;17.11;70.83
67842;BME280;54642;59.126;37.876;2023-05-22T05:47:06;100986.63;;;17.20;70.10
67842;BME280;54642;59.126;37.876;2023-05-22T05:49:32;101003.72;;;17.41;69.67
67842;BME280;54642;59.126;37.876;2023-05-22T05:51:58;100987.09;;;17.43;70.12
67842;BME280;54642;59.126;37.876;2023-05-22T05:54:24;100993.88;;;17.53;69.70
67842;BME280;54642;59.126;37.876;2023-05-22T05:56:53;100998.78;;;17.70;69.42
67842;BME280;54642;59.126;37.876;2023-05-22T05:59:19;100990.03;;;17.71;69.12
67842;BME280;54642;59.126;37.876;2023-05-22T06:02:20;100999.69;;;17.69;68.97
67842;BME280;54642;59.126;37.876;2023-05-22T06:04:48;100997.06;;;17.71;69.01
67842;BME280;54642;59.126;37.876;2023-05-22T06:07:16;100973.69;;;17.60;68.77
67842;BME280;54642;59.126;37.876;2023-05-22T06:09:44;100993.22;;;17.90;68.96
67842;BME280;54642;59.126;37.876;2023-05-22T06:12:17;101000.88;;;18.00;68.67
67842;BME280;54642;59.126;37.876;2023-05-22T06:14:44;101001.69;;;18.03;68.82
67842;BME280;54642;59.126;37.876;2023-05-22T06:17:10;100980.66;;;18.05;68.54
67842;BME280;54642;59.126;37.876;2023-05-22T06:19:39;100993.28;;;18.28;68.60
67842;BME280;54642;59.126;37.876;2023-05-22T06:22:05;100978.44;;;18.27;67.99
67842;BME280;54642;59.126;37.876;2023-05-22T06:24:31;100988.84;;;18.32;67.87
67842;BME280;54642;59.126;37.876;2023-05-22T06:27:02;100985.25;;;18.36;67.10
67842;BME280;54642;59.126;37.876;2023-05-22T06:29:29;100992.78;;;18.51;67.03
67842;BME280;54642;59.126;37.876;2023-05-22T06:31:55;100993.59;;;18.53;67.00
67842;BME280;54642;59.126;37.876;2023-05-22T06:34:21;100970.09;;;18.47;66.87
67842;BME280;54642;59.126;37.876;2023-05-22T06:36:48;100975.06;;;18.59;66.65
67842;BME280;54642;59.126;37.876;2023-05-22T06:39:17;100979.09;;;18.74;66.38
67842;BME280;54642;59.126;37.876;2023-05-22T06:41:55;100983.13;;;18.91;66.05
67842;BME280;54642;59.126;37.876;2023-05-22T06:44:21;100975.84;;;18.64;66.09
67842;BME280;54642;59.126;37.876;2023-05-22T06:46:53;100982.41;;;18.45;66.58
67842;BME280;54642;59.126;37.876;2023-05-22T06:49:22;101012.47;;;18.32;67.22
67842;BME280;54642;59.126;37.876;2023-05-22T06:51:51;100978.28;;;17.94;67.66
67842;BME280;54642;59.126;37.876;2023-05-22T06:54:17;101009.75;;;17.94;67.64
67842;BME280;54642;59.126;37.876;2023-05-22T06:56:46;101009.63;;;17.99;67.85
67842;BME280;54642;59.126;37.876;2023-05-22T06:59:15;101013.06;;;18.02;67.54
67842;BME280;54642;59.126;37.876;2023-05-22T07:01:47;101011.69;;;18.26;67.33
67842;BME280;54642;59.126;37.876;2023-05-22T07:04:17;101008.00;;;18.35;67.34
67842;BME280;54642;59.126;37.876;2023-05-22T07:07:10;100998.56;;;18.65;66.72
67842;BME280;54642;59.126;37.876;2023-05-22T07:09:36;100984.47;;;18.70;66.04
67842;BME280;54642;59.126;37.876;2023-05-22T07:12:04;100969.22;;;18.87;65.75
67842;BME280;54642;59.126;37.876;2023-05-22T07:14:30;100993.00;;;19.15;65.55
67842;BME280;54642;59.126;37.876;2023-05-22T07:16:55;100990.72;;;19.01;65.39
67842;BME280;54642;59.126;37.876;2023-05-22T07:19:26;100989.94;;;18.98;65.49
67842;BME280;54642;59.126;37.876;2023-05-22T07:21:55;100991.22;;;18.80;65.70
67842;BME280;54642;59.126;37.876;2023-05-22T07:24:21;100994.25;;;18.63;65.96
67842;BME280;54642;59.126;37.876;2023-05-22T07:26:47;101005.66;;;18.62;66.00
67842;BME280;54642;59.126;37.876;2023-05-22T07:29:15;101004.91;;;18.57;66.44
67842;BME280;54642;59.126;37.876;2023-05-22T07:31:43;100976.63;;;18.29;66.38
67842;BME280;54642;59.126;37.876;2023-05-22T07:34:09;101004.22;;;18.47;66.77
67842;BME280;54642;59.126;37.876;2023-05-22T07:36:35;100997.44;;;18.37;67.30
67842;BME280;54642;59.126;37.876;2023-05-22T07:39:02;100986.34;;;18.25;66.97
67842;BME280;54642;59.126;37.876;2023-05-22T07:41:32;101019.22;;;18.42;67.12
67842;BME280;54642;59.126;37.876;2023-05-22T07:43:58;101010.44;;;18.43;66.92
67842;BME280;54642;59.126;37.876;2023-05-22T07:46:29;100998.84;;;18.53;66.89
67842;BME280;54642;59.126;37.876;2023-05-22T07:49:08;101001.34;;;18.58;66.62
67842;BME280;54642;59.126;37.876;2023-05-22T07:51:37;100994.97;;;18.70;66.27
67842;BME280;54642;59.126;37.876;2023-05-22T07:54:03;101009.53;;;18.83;65.91
67842;BME280;54642;59.126;37.876;2023-05-22T07:56:29;101008.31;;;18.99;65.05
67842;BME280;54642;59.126;37.876;2023-05-22T07:58:57;100996.19;;;18.92;64.27
67842;BME280;54642;59.126;37.876;2023-05-22T08:01:25;100996.28;;;18.89;63.50
67842;BME280;54642;59.126;37.876;2023-05-22T08:03:51;101005.06;;;18.88;64.01
67842;BME280;54642;59.126;37.876;2023-05-22T08:06:17;100993.19;;;18.70;63.78
67842;BME280;54642;59.126;37.876;2023-05-22T08:08:42;101011.16;;;18.89;63.43
67842;BME280;54642;59.126;37.876;2023-05-22T08:11:08;101003.69;;;19.08;62.49
67842;BME280;54642;59.126;37.876;2023-05-22T08:13:34;101006.59;;;19.31;61.69
67842;BME280;54642;59.126;37.876;2023-05-22T08:16:02;100991.44;;;19.42;61.14
67842;BME280;54642;59.126;37.876;2023-05-22T08:18:28;100974.44;;;19.54;60.62
67842;BME280;54642;59.126;37.876;2023-05-22T08:20:54;100998.31;;;19.79;60.09
67842;BME280;54642;59.126;37.876;2023-05-22T08:23:20;101009.84;;;19.75;60.48
67842;BME280;54642;59.126;37.876;2023-05-22T08:25:46;101012.28;;;19.49;60.51
67842;BME280;54642;59.126;37.876;2023-05-22T08:28:12;101004.47;;;19.11;60.51
67842;BME280;54642;59.126;37.876;2023-05-22T08:30:38;101024.69;;;19.09;61.22
67842;BME280;54642;59.126;37.876;2023-05-22T08:33:03;101012.97;;;18.86;61.27
67842;BME280;54642;59.126;37.876;2023-05-22T08:35:29;101024.22;;;18.92;61.40
67842;BME280;54642;59.126;37.876;2023-05-22T08:37:55;101011.72;;;18.64;61.13
67842;BME280;54642;59.126;37.876;2023-05-22T08:40:22;101007.50;;;18.58;61.45
67842;BME280;54642;59.126;37.876;2023-05-22T08:42:51;101020.66;;;18.57;61.77
67842;BME280;54642;59.126;37.876;2023-05-22T08:45:19;101032.00;;;18.57;61.72
67842;BME280;54642;59.126;37.876;2023-05-22T08:47:51;101043.53;;;18.50;61.86
67842;BME280;54642;59.126;37.876;2023-05-22T08:50:18;101022.81;;;18.38;61.92
67842;BME280;54642;59.126;37.876;2023-05-22T08:52:51;101049.03;;;18.39;62.10
67842;BME280;54642;59.126;37.876;2023-05-22T08:55:21;101031.00;;;18.22;61.39
67842;BME280;54642;59.126;37.876;2023-05-22T08:57:48;101030.03;;;18.28;61.85
67842;BME280;54642;59.126;37.876;2023-05-22T09:00:16;101043.22;;;18.23;61.83
67842;BME280;54642;59.126;37.876;2023-05-22T09:02:42;101053.66;;;18.26;62.13
67842;BME280;54642;59.126;37.876;2023-05-22T09:05:08;101032.81;;;18.19;62.07
67842;BME280;54642;59.126;37.876;2023-05-22T09:07:35;101029.34;;;18.18;62.16
67842;BME280;54642;59.126;37.876;2023-05-22T09:10:02;101031.09;;;18.19;62.47
67842;BME280;54642;59.126;37.876;2023-05-22T09:12:30;101032.91;;;18.16;62.51
67842;BME280;54642;59.126;37.876;2023-05-22T09:15:06;101016.50;;;18.04;62.73
67842;BME280;54642;59.126;37.876;2023-05-22T09:17:32;101051.31;;;18.13;62.53
67842;BME280;54642;59.126;37.876;2023-05-22T09:19:58;101037.69;;;17.95;62.47
67842;BME280;54642;59.126;37.876;2023-05-22T09:22:34;101048.31;;;17.89;63.02
67842;BME280;54642;59.126;37.876;2023-05-22T09:25:03;101040.47;;;17.84;62.88
67842;BME280;54642;59.126;37.876;2023-05-22T09:27:29;101057.06;;;17.85;63.04
67842;BME280;54642;59.126;37.876;2023-05-22T09:29:56;101034.59;;;17.73;63.23
67842;BME280;54642;59.126;37.876;2023-05-22T09:32:22;100993.88;;;17.53;63.22
67842;BME280;54642;59.126;37.876;2023-05-22T09:34:49;101037.88;;;17.83;63.43
67842;BME280;54642;59.126;37.876;2023-05-22T09:37:16;101037.00;;;17.85;63.27
67842;BME280;54642;59.126;37.876;2023-05-22T09:39:44;101000.56;;;17.70;63.26
67842;BME280;54642;59.126;37.876;2023-05-22T09:42:13;100995.06;;;17.82;63.56
67842;BME280;54642;59.126;37.876;2023-05-22T09:44:40;101014.44;;;18.20;63.10
67842;BME280;54642;59.126;37.876;2023-05-22T09:47:09;101014.88;;;18.41;62.33
67842;BME280;54642;59.126;37.876;2023-05-22T09:49:40;101031.00;;;18.63;62.31
67842;BME280;54642;59.126;37.876;2023-05-22T09:52:07;101009.97;;;18.64;62.25
67842;BME280;54642;59.126;37.876;2023-05-22T09:54:34;100976.06;;;18.55;62.09
67842;BME280;54642;59.126;37.876;2023-05-22T09:57:04;101015.69;;;18.83;62.06
67842;BME280;54642;59.126;37.876;2023-05-22T09:59:32;101011.22;;;18.87;61.61
67842;BME280;54642;59.126;37.876;2023-05-22T10:01:59;101029.44;;;18.93;61.71
67842;BME280;54642;59.126;37.876;2023-05-22T10:04:31;101020.81;;;18.88;60.93
67842;BME280;54642;59.126;37.876;2023-05-22T10:06:59;101013.00;;;18.85;61.04
67842;BME280;54642;59.126;37.876;2023-05-22T10:09:30;101022.56;;;18.89;61.40
67842;BME280;54642;59.126;37.876;2023-05-22T10:12:03;101014.56;;;18.92;61.17
67842;BME280;54642;59.126;37.876;2023-05-22T10:14:30;101004.00;;;18.95;60.95
67842;BME280;54642;59.126;37.876;2023-05-22T10:16:57;101009.03;;;19.04;60.70
67842;BME280;54642;59.126;37.876;2023-05-22T10:19:27;100995.03;;;19.04;60.79
67842;BME280;54642;59.126;37.876;2023-05-22T10:21:55;101005.28;;;19.15;60.52
67842;BME280;54642;59.126;37.876;2023-05-22T10:24:24;100991.28;;;19.14;60.06
67842;BME280;54642;59.126;37.876;2023-05-22T10:26:52;100983.53;;;19.08;60.43
67842;BME280;54642;59.126;37.876;2023-05-22T10:29:27;101008.41;;;19.29;60.13
67842;BME280;54642;59.126;37.876;2023-05-22T10:35:18;100982.44;;;19.17;59.64
67842;BME280;54642;59.126;37.876;2023-05-22T10:40:44;100998.63;;;19.34;59.31
67842;BME280;54642;59.126;37.876;2023-05-22T10:43:10;100991.31;;;19.46;59.44
67842;BME280;54642;59.126;37.876;2023-05-22T10:45:36;101001.63;;;19.55;59.12
67842;BME280;54642;59.126;37.876;2023-05-22T10:50:35;100971.19;;;19.46;59.40
67842;BME280;54642;59.126;37.876;2023-05-22T10:53:25;100990.13;;;19.57;59.40
67842;BME280;54642;59.126;37.876;2023-05-22T10:55:54;101002.19;;;19.66;58.94
67842;BME280;54642;59.126;37.876;2023-05-22T10:58:28;101006.38;;;19.73;58.77
67842;BME280;54642;59.126;37.876;2023-05-22T11:03:59;101008.72;;;19.84;58.69
67842;BME280;54642;59.126;37.876;2023-05-22T11:06:38;101008.78;;;19.81;58.08
67842;BME280;54642;59.126;37.876;2023-05-22T11:09:31;101007.28;;;19.71;58.32
67842;BME280;54642;59.126;37.876;2023-05-22T11:12:22;101014.63;;;19.59;58.05
67842;BME280;54642;59.126;37.876;2023-05-22T11:14:53;101021.66;;;19.59;58.45
67842;BME280;54642;59.126;37.876;2023-05-22T11:17:24;101017.38;;;19.55;58.32
67842;BME280;54642;59.126;37.876;2023-05-22T11:20:04;101021.50;;;19.63;57.99
67842;BME280;54642;59.126;37.876;2023-05-22T11:22:36;100967.16;;;19.31;57.99
67842;BME280;54642;59.126;37.876;2023-05-22T11:25:10;100996.69;;;19.42;58.13
67842;BME280;54642;59.126;37.876;2023-05-22T11:27:40;100994.19;;;19.36;58.14
67842;BME280;54642;59.126;37.876;2023-05-22T11:30:07;100992.28;;;19.43;58.00
67842;BME280;54642;59.126;37.876;2023-05-22T11:32:37;100984.59;;;19.35;58.01
67842;BME280;54642;59.126;37.876;2023-05-22T11:35:04;101007.09;;;19.46;58.05
67842;BME280;54642;59.126;37.876;2023-05-22T11:37:36;100993.00;;;19.50;58.60
67842;BME280;54642;59.126;37.876;2023-05-22T11:40:03;100984.88;;;19.57;58.27
67842;BME280;54642;59.126;37.876;2023-05-22T11:42:31;100975.72;;;19.71;58.66
67842;BME280;54642;59.126;37.876;2023-05-22T11:44:57;100994.56;;;19.88;58.14
67842;BME280;54642;59.126;37.876;2023-05-22T11:47:24;100970.03;;;19.88;57.70
67842;BME280;54642;59.126;37.876;2023-05-22T11:49:50;100957.94;;;19.82;57.57
67842;BME280;54642;59.126;37.876;2023-05-22T11:52:16;100955.09;;;19.88;57.27
67842;BME280;54642;59.126;37.876;2023-05-22T11:54:46;100972.31;;;20.00;57.09
67842;BME280;54642;59.126;37.876;2023-05-22T11:57:13;100937.81;;;19.79;57.45
67842;BME280;54642;59.126;37.876;2023-05-22T11:59:46;100936.88;;;19.82;56.52
67842;BME280;54642;59.126;37.876;2023-05-22T12:02:13;100949.81;;;19.90;56.18
67842;BME280;54642;59.126;37.876;2023-05-22T12:04:40;100949.13;;;19.83;55.91
67842;BME280;54642;59.126;37.876;2023-05-22T12:07:07;100944.78;;;19.82;55.64
67842;BME280;54642;59.126;37.876;2023-05-22T12:09:33;100953.53;;;19.83;55.28
67842;BME280;54642;59.126;37.876;2023-05-22T12:11:59;100954.34;;;19.85;55.22
67842;BME280;54642;59.126;37.876;2023-05-22T12:14:26;100958.44;;;19.95;55.46
67842;BME280;54642;59.126;37.876;2023-05-22T12:16:52;100956.31;;;20.06;54.81
67842;BME280;54642;59.126;37.876;2023-05-22T12:19:19;100925.03;;;19.97;54.75
67842;BME280;54642;59.126;37.876;2023-05-22T12:21:48;100952.56;;;20.15;54.20
67842;BME280;54642;59.126;37.876;2023-05-22T12:24:14;100954.06;;;20.24;54.62
67842;BME280;54642;59.126;37.876;2023-05-22T12:26:40;100933.91;;;20.23;54.45
67842;BME280;54642;59.126;37.876;2023-05-22T12:29:13;100959.06;;;20.31;53.83
67842;BME280;54642;59.126;37.876;2023-05-22T12:31:39;100961.56;;;20.36;54.12
67842;BME280;54642;59.126;37.876;2023-05-22T12:34:06;100954.28;;;20.44;53.73
67842;BME280;54642;59.126;37.876;2023-05-22T12:36:40;100948.22;;;20.42;53.59
67842;BME280;54642;59.126;37.876;2023-05-22T12:39:07;100955.88;;;20.50;53.91
67842;BME280;54642;59.126;37.876;2023-05-22T12:41:34;100964.59;;;20.52;54.08
67842;BME280;54642;59.126;37.876;2023-05-22T12:43:59;100938.56;;;20.43;54.38
67842;BME280;54642;59.126;37.876;2023-05-22T12:46:26;100951.66;;;20.44;53.80
67842;BME280;54642;59.126;37.876;2023-05-22T12:48:52;100963.81;;;20.48;53.88
67842;BME280;54642;59.126;37.876;2023-05-22T12:51:18;100948.88;;;20.49;54.09
67842;BME280;54642;59.126;37.876;2023-05-22T12:53:44;100930.66;;;20.43;54.01
67842;BME280;54642;59.126;37.876;2023-05-22T12:56:10;100938.47;;;20.44;53.82
67842;BME280;54642;59.126;37.876;2023-05-22T12:58:36;100955.00;;;20.49;54.09
67842;BME280;54642;59.126;37.876;2023-05-22T13:01:02;100930.69;;;20.41;54.17
67842;BME280;54642;59.126;37.876;2023-05-22T13:03:28;100951.34;;;20.55;53.81